sensor_id;sensor_type;location;lat;lon;timestamp;pressure;altitude;pressure_sealevel;temperature;humidity
23281;BME280;11809;56.390;-3.266;2023-02-21T00:01:57;100886.06;;;16.81;56.20
23281;BME280;11809;56.390;-3.266;2023-02-21T00:04:43;100881.81;;;16.79;56.29
23281;BME280;11809;56.390;-3.266;2023-02-21T00:07:28;100883.78;;;16.75;56.45
23281;BME280;11809;56.390;-3.266;2023-02-21T00:10:14;100886.63;;;16.72;56.42
23281;BME280;11809;56.390;-3.266;2023-02-21T00:13:00;100899.16;;;16.70;56.39
23281;BME280;11809;56.390;-3.266;2023-02-21T00:15:46;100899.31;;;16.67;56.52
23281;BME280;11809;56.390;-3.266;2023-02-21T00:18:35;100905.69;;;16.65;56.52
23281;BME280;11809;56.390;-3.266;2023-02-21T00:21:21;100904.81;;;16.64;56.47
23281;BME280;11809;56.390;-3.266;2023-02-21T00:24:11;100900.44;;;16.63;56.40
23281;BME280;11809;56.390;-3.266;2023-02-21T00:26:57;100895.25;;;16.62;56.64
23281;BME280;11809;56.390;-3.266;2023-02-21T00:29:42;100893.53;;;16.61;56.63
23281;BME280;11809;56.390;-3.266;2023-02-21T00:32:28;100894.50;;;16.60;56.70
23281;BME280;11809;56.390;-3.266;2023-02-21T00:35:14;100892.88;;;16.57;56.80
23281;BME280;11809;56.390;-3.266;2023-02-21T00:37:59;100898.25;;;16.56;56.65
23281;BME280;11809;56.390;-3.266;2023-02-21T00:40:45;100891.28;;;16.55;56.66
23281;BME280;11809;56.390;-3.266;2023-02-21T00:43:33;100883.47;;;16.52;56.70
23281;BME280;11809;56.390;-3.266;2023-02-21T00:46:20;100891.50;;;16.50;56.85
23281;BME280;11809;56.390;-3.266;2023-02-21T00:49:05;100891.50;;;16.50;56.93
23281;BME280;11809;56.390;-3.266;2023-02-21T00:51:52;100891.59;;;16.49;57.02
23281;BME280;11809;56.390;-3.266;2023-02-21T00:54:38;100888.28;;;16.45;56.96
23281;BME280;11809;56.390;-3.266;2023-02-21T00:57:25;100883.94;;;16.44;56.99
23281;BME280;11809;56.390;-3.266;2023-02-21T01:00:19;100886.47;;;16.46;56.96
23281;BME280;11809;56.390;-3.266;2023-02-21T01:03:05;100889.13;;;16.46;57.06
23281;BME280;11809;56.390;-3.266;2023-02-21T01:05:51;100879.56;;;16.43;57.17
23281;BME280;11809;56.390;-3.266;2023-02-21T01:08:45;100886.59;;;16.44;57.02
23281;BME280;11809;56.390;-3.266;2023-02-21T01:11:32;100881.34;;;16.43;57.10
23281;BME280;11809;56.390;-3.266;2023-02-21T01:14:17;100888.44;;;16.42;57.07
23281;BME280;11809;56.390;-3.266;2023-02-21T01:17:03;100879.75;;;16.40;57.25
23281;BME280;11809;56.390;-3.266;2023-02-21T01:19:48;100887.81;;;16.38;57.24
23281;BME280;11809;56.390;-3.266;2023-02-21T01:22:35;100876.22;;;16.39;57.18
23281;BME280;11809;56.390;-3.266;2023-02-21T01:25:21;100883.34;;;16.39;57.17
23281;BME280;11809;56.390;-3.266;2023-02-21T01:28:06;100884.19;;;16.39;57.41
23281;BME280;11809;56.390;-3.266;2023-02-21T01:30:52;100886.00;;;16.39;57.26
23281;BME280;11809;56.390;-3.266;2023-02-21T01:33:39;100885.16;;;16.38;57.37
23281;BME280;11809;56.390;-3.266;2023-02-21T01:36:26;100886.94;;;16.38;57.31
23281;BME280;11809;56.390;-3.266;2023-02-21T01:39:12;100887.97;;;16.35;57.39
23281;BME280;11809;56.390;-3.266;2023-02-21T01:41:58;100880.97;;;16.34;57.49
23281;BME280;11809;56.390;-3.266;2023-02-21T01:44:46;100876.44;;;16.36;57.43
23281;BME280;11809;56.390;-3.266;2023-02-21T01:47:32;100876.34;;;16.38;57.46
23281;BME280;11809;56.390;-3.266;2023-02-21T01:53:09;100871.97;;;16.37;57.42
23281;BME280;11809;56.390;-3.266;2023-02-21T01:55:56;100863.19;;;16.36;57.41
23281;BME280;11809;56.390;-3.266;2023-02-21T01:58:45;100866.59;;;16.38;57.49
23281;BME280;11809;56.390;-3.266;2023-02-21T02:01:40;100867.44;;;16.39;57.50
23281;BME280;11809;56.390;-3.266;2023-02-21T02:04:27;100865.72;;;16.38;57.50
23281;BME280;11809;56.390;-3.266;2023-02-21T02:07:13;100861.34;;;16.37;57.28
23281;BME280;11809;56.390;-3.266;2023-02-21T02:09:58;100864.00;;;16.37;57.57
23281;BME280;11809;56.390;-3.266;2023-02-21T02:12:56;100859.56;;;16.37;57.53
23281;BME280;11809;56.390;-3.266;2023-02-21T02:15:36;100866.41;;;16.42;57.58
23281;BME280;11809;56.390;-3.266;2023-02-21T02:18:22;100867.22;;;16.42;57.58
23281;BME280;11809;56.390;-3.266;2023-02-21T02:40:14;100874.94;;;16.47;57.48
23281;BME280;11809;56.390;-3.266;2023-02-21T02:43:02;100867.72;;;16.49;57.37
23281;BME280;11809;56.390;-3.266;2023-02-21T02:48:19;100867.72;;;16.49;57.46
23281;BME280;11809;56.390;-3.266;2023-02-21T02:50:48;100867.72;;;16.49;57.46
23281;BME280;11809;56.390;-3.266;2023-02-21T02:53:25;100872.69;;;16.55;57.35
23281;BME280;11809;56.390;-3.266;2023-02-21T02:55:58;100863.78;;;16.56;57.44
23281;BME280;11809;56.390;-3.266;2023-02-21T02:59:04;100859.31;;;16.56;57.47
23281;BME280;11809;56.390;-3.266;2023-02-21T03:07:20;100858.09;;;16.62;57.10
23281;BME280;11809;56.390;-3.266;2023-02-21T03:15:56;100848.03;;;16.67;57.17
23281;BME280;11809;56.390;-3.266;2023-02-21T03:18:34;100847.09;;;16.68;57.26
23281;BME280;11809;56.390;-3.266;2023-02-21T03:21:09;100848.78;;;16.69;57.16
23281;BME280;11809;56.390;-3.266;2023-02-21T03:23:38;100838.41;;;16.66;57.31
23281;BME280;11809;56.390;-3.266;2023-02-21T03:26:09;100845.22;;;16.70;57.15
23281;BME280;11809;56.390;-3.266;2023-02-21T03:28:37;100841.81;;;16.68;57.34
23281;BME280;11809;56.390;-3.266;2023-02-21T03:31:06;100842.66;;;16.68;57.32
23281;BME280;11809;56.390;-3.266;2023-02-21T03:33:34;100838.19;;;16.69;57.28
23281;BME280;11809;56.390;-3.266;2023-02-21T03:36:05;100832.88;;;16.69;57.25
23281;BME280;11809;56.390;-3.266;2023-02-21T03:38:32;100838.84;;;16.72;57.35
23281;BME280;11809;56.390;-3.266;2023-02-21T03:40:59;100835.25;;;16.73;57.16
23281;BME280;11809;56.390;-3.266;2023-02-21T03:43:26;100837.81;;;16.75;57.19
23281;BME280;11809;56.390;-3.266;2023-02-21T03:45:53;100836.13;;;16.74;57.34
23281;BME280;11809;56.390;-3.266;2023-02-21T03:48:20;100836.94;;;16.74;57.25
23281;BME280;11809;56.390;-3.266;2023-02-21T03:50:57;100843.13;;;16.75;57.38
23281;BME280;11809;56.390;-3.266;2023-02-21T03:53:24;100839.53;;;16.76;57.36
23281;BME280;11809;56.390;-3.266;2023-02-21T03:55:51;100837.63;;;16.78;57.44
23281;BME280;11809;56.390;-3.266;2023-02-21T03:58:19;100832.50;;;16.75;57.33
23281;BME280;11809;56.390;-3.266;2023-02-21T04:00:46;100844.66;;;16.79;57.36
23281;BME280;11809;56.390;-3.266;2023-02-21T04:03:13;100842.94;;;16.78;57.38
23281;BME280;11809;56.390;-3.266;2023-02-21T04:05:39;100845.28;;;16.82;57.43
23281;BME280;11809;56.390;-3.266;2023-02-21T04:08:06;100848.06;;;16.81;57.48
23281;BME280;11809;56.390;-3.266;2023-02-21T04:10:33;100849.84;;;16.80;57.32
23281;BME280;11809;56.390;-3.266;2023-02-21T04:13:12;100844.44;;;16.82;57.38
23281;BME280;11809;56.390;-3.266;2023-02-21T04:15:39;100847.09;;;16.82;57.32
23281;BME280;11809;56.390;-3.266;2023-02-21T04:18:06;100826.81;;;16.81;57.26
23281;BME280;11809;56.390;-3.266;2023-02-21T04:20:33;100835.63;;;16.81;57.35
23281;BME280;11809;56.390;-3.266;2023-02-21T04:22:59;100824.06;;;16.82;57.55
23281;BME280;11809;56.390;-3.266;2023-02-21T04:25:29;100830.22;;;16.83;57.35
23281;BME280;11809;56.390;-3.266;2023-02-21T04:27:56;100823.00;;;16.85;57.66
23281;BME280;11809;56.390;-3.266;2023-02-21T04:30:23;100819.41;;;16.86;57.51
23281;BME280;11809;56.390;-3.266;2023-02-21T04:32:50;100814.09;;;16.86;57.30
23281;BME280;11809;56.390;-3.266;2023-02-21T04:35:17;100810.50;;;16.87;57.56
23281;BME280;11809;56.390;-3.266;2023-02-21T04:37:44;100820.16;;;16.88;57.52
23281;BME280;11809;56.390;-3.266;2023-02-21T04:40:12;100818.38;;;16.88;57.28
23281;BME280;11809;56.390;-3.266;2023-02-21T04:42:39;100823.38;;;16.93;57.24
23281;BME280;11809;56.390;-3.266;2023-02-21T04:45:06;100827.94;;;16.91;57.33
23281;BME280;11809;56.390;-3.266;2023-02-21T04:47:33;100821.56;;;16.93;57.26
23281;BME280;11809;56.390;-3.266;2023-02-21T04:50:00;100817.13;;;16.94;57.31
23281;BME280;11809;56.390;-3.266;2023-02-21T04:52:27;100817.88;;;16.96;57.29
23281;BME280;11809;56.390;-3.266;2023-02-21T04:54:54;100811.63;;;16.97;57.46
23281;BME280;11809;56.390;-3.266;2023-02-21T04:57:21;100814.28;;;16.97;57.25
23281;BME280;11809;56.390;-3.266;2023-02-21T04:59:48;100815.03;;;16.99;57.15
23281;BME280;11809;56.390;-3.266;2023-02-21T05:02:14;100806.31;;;16.97;57.20
23281;BME280;11809;56.390;-3.266;2023-02-21T05:04:41;100807.81;;;17.01;57.24
23281;BME280;11809;56.390;-3.266;2023-02-21T05:07:08;100807.91;;;17.00;57.17
23281;BME280;11809;56.390;-3.266;2023-02-21T05:09:35;100808.78;;;17.00;57.12
23281;BME280;11809;56.390;-3.266;2023-02-21T05:12:02;100805.25;;;17.00;57.23
23281;BME280;11809;56.390;-3.266;2023-02-21T05:14:29;100814.84;;;17.02;57.20
23281;BME280;11809;56.390;-3.266;2023-02-21T05:16:56;100806.75;;;17.04;57.22
23281;BME280;11809;56.390;-3.266;2023-02-21T05:19:23;100800.81;;;17.00;57.35
23281;BME280;11809;56.390;-3.266;2023-02-21T05:21:54;100805.06;;;17.03;57.31
23281;BME280;11809;56.390;-3.266;2023-02-21T05:24:24;100795.31;;;17.03;57.49
23281;BME280;11809;56.390;-3.266;2023-02-21T05:26:51;100798.72;;;17.05;57.21
23281;BME280;11809;56.390;-3.266;2023-02-21T05:29:18;100802.41;;;17.03;57.37
23281;BME280;11809;56.390;-3.266;2023-02-21T05:31:45;100797.84;;;17.05;57.12
23281;BME280;11809;56.390;-3.266;2023-02-21T05:34:14;100797.00;;;17.04;57.29
23281;BME280;11809;56.390;-3.266;2023-02-21T05:36:41;100793.22;;;17.08;57.28
23281;BME280;11809;56.390;-3.266;2023-02-21T05:39:08;100786.06;;;17.09;57.25
23281;BME280;11809;56.390;-3.266;2023-02-21T05:41:35;100793.22;;;17.08;57.31
23281;BME280;11809;56.390;-3.266;2023-02-21T05:44:04;100789.69;;;17.08;57.11
23281;BME280;11809;56.390;-3.266;2023-02-21T05:46:33;100786.19;;;17.07;57.20
23281;BME280;11809;56.390;-3.266;2023-02-21T05:49:02;100782.59;;;17.08;57.12
23281;BME280;11809;56.390;-3.266;2023-02-21T05:51:34;100787.91;;;17.08;57.16
23281;BME280;11809;56.390;-3.266;2023-02-21T05:54:02;100788.84;;;17.07;57.32
23281;BME280;11809;56.390;-3.266;2023-02-21T05:56:29;100788.94;;;17.06;57.35
23281;BME280;11809;56.390;-3.266;2023-02-21T05:58:56;100795.09;;;17.06;57.32
23281;BME280;11809;56.390;-3.266;2023-02-21T06:01:23;100795.63;;;17.11;57.56
23281;BME280;11809;56.390;-3.266;2023-02-21T06:03:50;100791.84;;;17.15;57.23
23281;BME280;11809;56.390;-3.266;2023-02-21T06:06:17;100788.81;;;17.21;57.35
23281;BME280;11809;56.390;-3.266;2023-02-21T06:08:46;100781.38;;;17.26;57.04
23281;BME280;11809;56.390;-3.266;2023-02-21T06:11:20;100801.19;;;17.35;56.98
23281;BME280;11809;56.390;-3.266;2023-02-21T06:13:53;100785.88;;;17.38;56.66
23281;BME280;11809;56.390;-3.266;2023-02-21T06:16:20;100785.69;;;17.41;56.86
23281;BME280;11809;56.390;-3.266;2023-02-21T06:18:52;100787.19;;;17.45;56.67
23281;BME280;11809;56.390;-3.266;2023-02-21T06:21:19;100779.97;;;17.47;56.70
23281;BME280;11809;56.390;-3.266;2023-02-21T06:23:46;100777.19;;;17.49;56.65
23281;BME280;11809;56.390;-3.266;2023-02-21T06:26:14;100767.22;;;17.52;56.54
23281;BME280;11809;56.390;-3.266;2023-02-21T06:28:41;100774.44;;;17.50;56.32
23281;BME280;11809;56.390;-3.266;2023-02-21T06:31:08;100772.00;;;17.47;55.91
23281;BME280;11809;56.390;-3.266;2023-02-21T06:33:35;100784.63;;;17.44;56.31
23281;BME280;11809;56.390;-3.266;2023-02-21T06:36:04;100779.09;;;17.47;55.98
23281;BME280;11809;56.390;-3.266;2023-02-21T06:38:32;100772.66;;;17.51;56.02
23281;BME280;11809;56.390;-3.266;2023-02-21T06:40:59;100777.75;;;17.54;56.19
23281;BME280;11809;56.390;-3.266;2023-02-21T06:43:28;100778.75;;;17.53;56.14
23281;BME280;11809;56.390;-3.266;2023-02-21T06:45:55;100778.31;;;17.59;56.11
23281;BME280;11809;56.390;-3.266;2023-02-21T06:48:22;100777.28;;;17.62;56.06
23281;BME280;11809;56.390;-3.266;2023-02-21T06:50:49;100775.38;;;17.64;55.89
23281;BME280;11809;56.390;-3.266;2023-02-21T06:53:16;100769.94;;;17.65;55.95
23281;BME280;11809;56.390;-3.266;2023-02-21T06:55:43;100778.56;;;17.69;55.79
23281;BME280;11809;56.390;-3.266;2023-02-21T06:58:10;100779.31;;;17.71;56.02
23281;BME280;11809;56.390;-3.266;2023-02-21T07:00:37;100781.75;;;17.74;55.82
23281;BME280;11809;56.390;-3.266;2023-02-21T07:03:04;100767.53;;;17.75;55.99
23281;BME280;11809;56.390;-3.266;2023-02-21T07:05:31;100777.19;;;17.76;56.08
23281;BME280;11809;56.390;-3.266;2023-02-21T07:08:03;100784.31;;;17.48;55.14
23281;BME280;11809;56.390;-3.266;2023-02-21T07:10:30;100783.75;;;17.43;55.42
23281;BME280;11809;56.390;-3.266;2023-02-21T07:12:57;100777.19;;;17.49;56.09
23281;BME280;11809;56.390;-3.266;2023-02-21T07:15:24;100785.88;;;17.38;56.67
23281;BME280;11809;56.390;-3.266;2023-02-21T07:17:51;100778.22;;;17.34;57.13
23281;BME280;11809;56.390;-3.266;2023-02-21T07:20:18;100781.19;;;17.29;57.25
23281;BME280;11809;56.390;-3.266;2023-02-21T07:22:45;100770.75;;;17.26;57.35
23281;BME280;11809;56.390;-3.266;2023-02-21T07:25:17;100781.38;;;17.26;57.53
23281;BME280;11809;56.390;-3.266;2023-02-21T07:27:46;100780.72;;;17.23;57.64
23281;BME280;11809;56.390;-3.266;2023-02-21T07:30:14;100779.84;;;17.22;57.70
23281;BME280;11809;56.390;-3.266;2023-02-21T07:32:41;100783.56;;;17.20;57.81
23281;BME280;11809;56.390;-3.266;2023-02-21T07:35:08;100779.31;;;17.17;57.92
23281;BME280;11809;56.390;-3.266;2023-02-21T07:37:35;100778.91;;;17.23;57.66
23281;BME280;11809;56.390;-3.266;2023-02-21T07:40:03;100778.34;;;17.32;57.06
23281;BME280;11809;56.390;-3.266;2023-02-21T07:42:33;100786.66;;;17.40;56.83
23281;BME280;11809;56.390;-3.266;2023-02-21T07:45:00;100775.03;;;17.41;56.74
23281;BME280;11809;56.390;-3.266;2023-02-21T07:47:27;100776.34;;;17.48;57.25
23281;BME280;11809;56.390;-3.266;2023-02-21T07:49:54;100781.66;;;17.48;56.88
23281;BME280;11809;56.390;-3.266;2023-02-21T07:52:21;100772.44;;;17.54;57.72
23281;BME280;11809;56.390;-3.266;2023-02-21T07:54:48;100776.50;;;17.60;57.06
23281;BME280;11809;56.390;-3.266;2023-02-21T07:57:16;100776.31;;;17.63;57.36
23281;BME280;11809;56.390;-3.266;2023-02-21T07:59:43;100782.16;;;17.68;56.91
23281;BME280;11809;56.390;-3.266;2023-02-21T08:02:11;100776.97;;;17.66;57.16
23281;BME280;11809;56.390;-3.266;2023-02-21T08:04:39;100783.47;;;17.75;57.98
23281;BME280;11809;56.390;-3.266;2023-02-21T08:07:07;100771.66;;;17.79;58.38
23281;BME280;11809;56.390;-3.266;2023-02-21T08:09:35;100778.69;;;17.80;57.74
23281;BME280;11809;56.390;-3.266;2023-02-21T08:12:03;100779.09;;;17.86;57.30
23281;BME280;11809;56.390;-3.266;2023-02-21T08:14:30;100781.69;;;17.88;57.13
23281;BME280;11809;56.390;-3.266;2023-02-21T08:17:00;100775.38;;;17.89;56.80
23281;BME280;11809;56.390;-3.266;2023-02-21T08:19:27;100776.25;;;17.89;57.29
23281;BME280;11809;56.390;-3.266;2023-02-21T08:21:54;100775.19;;;17.92;57.32
23281;BME280;11809;56.390;-3.266;2023-02-21T08:24:21;100778.59;;;17.94;57.32
23281;BME280;11809;56.390;-3.266;2023-02-21T08:26:48;100776.56;;;17.97;57.06
23281;BME280;11809;56.390;-3.266;2023-02-21T08:29:15;100767.75;;;17.97;56.86
23281;BME280;11809;56.390;-3.266;2023-02-21T08:31:43;100771.91;;;18.01;56.44
23281;BME280;11809;56.390;-3.266;2023-02-21T08:34:11;100776.25;;;18.02;56.66
23281;BME280;11809;56.390;-3.266;2023-02-21T08:36:42;100778.81;;;18.03;56.59
23281;BME280;11809;56.390;-3.266;2023-02-21T08:39:09;100779.22;;;18.10;56.42
23281;BME280;11809;56.390;-3.266;2023-02-21T08:41:40;100775.84;;;18.08;56.47
23281;BME280;11809;56.390;-3.266;2023-02-21T08:44:09;100780.00;;;18.12;56.13
23281;BME280;11809;56.390;-3.266;2023-02-21T08:46:37;100775.63;;;18.11;56.18
23281;BME280;11809;56.390;-3.266;2023-02-21T08:49:08;100784.25;;;18.14;56.16
23281;BME280;11809;56.390;-3.266;2023-02-21T08:51:36;100782.13;;;18.20;56.29
23281;BME280;11809;56.390;-3.266;2023-02-21T08:54:03;100781.38;;;18.17;56.36
23281;BME280;11809;56.390;-3.266;2023-02-21T08:56:30;100780.53;;;18.17;56.28
23281;BME280;11809;56.390;-3.266;2023-02-21T08:58:57;100783.19;;;18.17;56.27
23281;BME280;11809;56.390;-3.266;2023-02-21T09:01:33;100779.47;;;18.20;56.24
23281;BME280;11809;56.390;-3.266;2023-02-21T09:04:03;100785.72;;;18.18;56.35
23281;BME280;11809;56.390;-3.266;2023-02-21T09:06:33;100783.81;;;18.21;56.57
23281;BME280;11809;56.390;-3.266;2023-02-21T09:09:00;100776.47;;;18.24;56.08
23281;BME280;11809;56.390;-3.266;2023-02-21T09:11:27;100776.47;;;18.24;56.39
23281;BME280;11809;56.390;-3.266;2023-02-21T09:13:54;100772.88;;;18.25;56.17
23281;BME280;11809;56.390;-3.266;2023-02-21T09:16:21;100782.44;;;18.28;56.06
23281;BME280;11809;56.390;-3.266;2023-02-21T09:18:56;100774.56;;;18.26;55.85
23281;BME280;11809;56.390;-3.266;2023-02-21T09:21:24;100767.22;;;18.30;55.94
23281;BME280;11809;56.390;-3.266;2023-02-21T09:23:54;100766.38;;;18.29;55.79
23281;BME280;11809;56.390;-3.266;2023-02-21T09:26:21;100770.75;;;18.30;55.59
23281;BME280;11809;56.390;-3.266;2023-02-21T09:28:52;100761.03;;;18.29;55.66
23281;BME280;11809;56.390;-3.266;2023-02-21T09:31:20;100762.03;;;18.28;55.61
23281;BME280;11809;56.390;-3.266;2023-02-21T09:33:47;100778.81;;;18.29;56.27
23281;BME280;11809;56.390;-3.266;2023-02-21T09:36:14;100770.22;;;18.25;55.54
23281;BME280;11809;56.390;-3.266;2023-02-21T09:38:42;100775.53;;;18.25;55.65
23281;BME280;11809;56.390;-3.266;2023-02-21T09:41:13;100772.97;;;18.24;55.67
23281;BME280;11809;56.390;-3.266;2023-02-21T09:43:49;100772.88;;;18.25;55.36
23281;BME280;11809;56.390;-3.266;2023-02-21T09:46:49;100773.59;;;18.27;55.43
23281;BME280;11809;56.390;-3.266;2023-02-21T09:49:27;100774.56;;;18.26;55.45
23281;BME280;11809;56.390;-3.266;2023-02-21T09:51:57;100773.59;;;18.27;55.28
23281;BME280;11809;56.390;-3.266;2023-02-21T09:54:34;100769.44;;;18.23;55.73
23281;BME280;11809;56.390;-3.266;2023-02-21T09:57:05;100761.25;;;18.26;55.81
23281;BME280;11809;56.390;-3.266;2023-02-21T09:59:32;100762.97;;;18.27;55.76
23281;BME280;11809;56.390;-3.266;2023-02-21T10:10:20;100765.84;;;18.24;55.65
23281;BME280;11809;56.390;-3.266;2023-02-21T10:15:40;100762.22;;;18.25;55.33
23281;BME280;11809;56.390;-3.266;2023-02-21T10:21:03;100757.22;;;18.21;55.18
23281;BME280;11809;56.390;-3.266;2023-02-21T10:23:53;100752.00;;;18.19;55.12
23281;BME280;11809;56.390;-3.266;2023-02-21T10:26:27;100759.03;;;18.20;55.10
23281;BME280;11809;56.390;-3.266;2023-02-21T10:28:55;100749.47;;;18.17;55.07
23281;BME280;11809;56.390;-3.266;2023-02-21T10:31:30;100743.28;;;18.17;55.12
23281;BME280;11809;56.390;-3.266;2023-02-21T10:34:02;100743.28;;;18.17;55.40
23281;BME280;11809;56.390;-3.266;2023-02-21T10:36:29;100738.72;;;18.19;55.04
23281;BME280;11809;56.390;-3.266;2023-02-21T10:39:17;100734.53;;;18.15;54.63
23281;BME280;11809;56.390;-3.266;2023-02-21T10:41:47;100733.72;;;18.14;54.89
23281;BME280;11809;56.390;-3.266;2023-02-21T10:44:23;100732.13;;;18.12;54.96
23281;BME280;11809;56.390;-3.266;2023-02-21T10:50:04;100726.47;;;18.16;54.84
23281;BME280;11809;56.390;-3.266;2023-02-21T10:52:51;100729.13;;;18.16;54.91
23281;BME280;11809;56.390;-3.266;2023-02-21T10:55:20;100712.66;;;18.11;54.76
23281;BME280;11809;56.390;-3.266;2023-02-21T10:58:06;100720.72;;;18.10;54.71
23281;BME280;11809;56.390;-3.266;2023-02-21T11:00:39;100713.72;;;18.09;54.73
23281;BME280;11809;56.390;-3.266;2023-02-21T11:05:55;100710.31;;;18.07;54.61
23281;BME280;11809;56.390;-3.266;2023-02-21T11:08:39;100710.31;;;18.07;54.46
23281;BME280;11809;56.390;-3.266;2023-02-21T11:11:07;100702.44;;;18.05;54.56
23281;BME280;11809;56.390;-3.266;2023-02-21T11:13:35;100713.94;;;18.06;54.66
23281;BME280;11809;56.390;-3.266;2023-02-21T11:16:10;100706.91;;;18.05;54.50
23281;BME280;11809;56.390;-3.266;2023-02-21T11:18:38;100707.88;;;18.04;54.52
23281;BME280;11809;56.390;-3.266;2023-02-21T11:21:16;100707.09;;;18.02;54.63
23281;BME280;11809;56.390;-3.266;2023-02-21T11:23:53;100714.03;;;18.04;54.42
23281;BME280;11809;56.390;-3.266;2023-02-21T11:26:30;100712.44;;;18.02;54.67
23281;BME280;11809;56.390;-3.266;2023-02-21T11:29:16;100712.44;;;18.02;54.84
23281;BME280;11809;56.390;-3.266;2023-02-21T11:31:44;100717.66;;;18.03;54.67
23281;BME280;11809;56.390;-3.266;2023-02-21T11:34:13;100710.75;;;18.01;54.94
23281;BME280;11809;56.390;-3.266;2023-02-21T11:36:43;100701.06;;;18.00;55.42
23281;BME280;11809;56.390;-3.266;2023-02-21T11:39:18;100705.09;;;18.05;55.00
23281;BME280;11809;56.390;-3.266;2023-02-21T11:41:53;100695.84;;;18.11;54.92
23281;BME280;11809;56.390;-3.266;2023-02-21T11:49:46;100694.03;;;18.11;55.51
23281;BME280;11809;56.390;-3.266;2023-02-21T11:55:23;100676.59;;;18.20;55.29
23281;BME280;11809;56.390;-3.266;2023-02-21T12:00:45;100661.97;;;18.26;55.78
23281;BME280;11809;56.390;-3.266;2023-02-21T12:06:16;100668.34;;;18.23;55.63
23281;BME280;11809;56.390;-3.266;2023-02-21T12:08:54;100656.97;;;18.21;55.54
23281;BME280;11809;56.390;-3.266;2023-02-21T12:11:47;100649.50;;;18.26;55.42
23281;BME280;11809;56.390;-3.266;2023-02-21T12:14:29;100640.47;;;18.29;55.00
23281;BME280;11809;56.390;-3.266;2023-02-21T12:20:06;100644.56;;;18.09;56.12
23281;BME280;11809;56.390;-3.266;2023-02-21T12:25:42;100636.59;;;17.84;56.60
23281;BME280;11809;56.390;-3.266;2023-02-21T12:36:04;100610.78;;;17.61;57.25
23281;BME280;11809;56.390;-3.266;2023-02-21T12:38:53;100619.09;;;17.56;57.41
23281;BME280;11809;56.390;-3.266;2023-02-21T12:44:18;100607.78;;;17.52;57.55
23281;BME280;11809;56.390;-3.266;2023-02-21T12:52:07;100602.47;;;17.40;57.73
23281;BME280;11809;56.390;-3.266;2023-02-21T13:00:33;100602.03;;;17.33;57.83
23281;BME280;11809;56.390;-3.266;2023-02-21T13:05:38;100596.00;;;17.31;57.79
23281;BME280;11809;56.390;-3.266;2023-02-21T13:08:18;100597.13;;;17.27;57.88
23281;BME280;11809;56.390;-3.266;2023-02-21T13:13:32;100589.41;;;17.24;58.13
23281;BME280;11809;56.390;-3.266;2023-02-21T13:16:04;100586.94;;;17.21;57.88
23281;BME280;11809;56.390;-3.266;2023-02-21T13:19:03;100578.00;;;17.22;57.92
23281;BME280;11809;56.390;-3.266;2023-02-21T13:24:15;100573.16;;;17.16;57.99
23281;BME280;11809;56.390;-3.266;2023-02-21T13:27:03;100581.84;;;17.18;57.95
23281;BME280;11809;56.390;-3.266;2023-02-21T13:29:37;100568.91;;;17.14;57.96
23281;BME280;11809;56.390;-3.266;2023-02-21T13:32:10;100572.56;;;17.11;58.11
23281;BME280;11809;56.390;-3.266;2023-02-21T13:34:59;100576.09;;;17.12;57.99
23281;BME280;11809;56.390;-3.266;2023-02-21T13:37:29;100567.38;;;17.10;58.03
23281;BME280;11809;56.390;-3.266;2023-02-21T13:40:00;100557.72;;;17.09;58.20
23281;BME280;11809;56.390;-3.266;2023-02-21T13:42:36;100559.53;;;17.08;58.07
23281;BME280;11809;56.390;-3.266;2023-02-21T13:45:24;100562.72;;;17.13;57.47
23281;BME280;11809;56.390;-3.266;2023-02-21T13:55:36;100549.81;;;16.82;54.17
23281;BME280;11809;56.390;-3.266;2023-02-21T14:08:30;100542.88;;;16.67;53.96
23281;BME280;11809;56.390;-3.266;2023-02-21T14:13:39;100527.69;;;16.42;53.41
23281;BME280;11809;56.390;-3.266;2023-02-21T14:21:18;100509.22;;;16.28;52.81
23281;BME280;11809;56.390;-3.266;2023-02-21T14:26:56;100498.84;;;16.64;54.04
23281;BME280;11809;56.390;-3.266;2023-02-21T14:34:32;100502.16;;;16.93;54.44
23281;BME280;11809;56.390;-3.266;2023-02-21T14:37:10;100497.63;;;16.95;54.44
23281;BME280;11809;56.390;-3.266;2023-02-21T14:39:44;100499.81;;;17.01;54.72
23281;BME280;11809;56.390;-3.266;2023-02-21T14:42:36;100501.34;;;17.05;54.87
23281;BME280;11809;56.390;-3.266;2023-02-21T14:50:30;100493.38;;;17.05;54.59
23281;BME280;11809;56.390;-3.266;2023-02-21T15:07:11;100495.75;;;16.58;52.15
23281;BME280;11809;56.390;-3.266;2023-02-21T15:09:42;100500.44;;;16.67;52.88
23281;BME280;11809;56.390;-3.266;2023-02-21T15:12:15;100505.75;;;16.79;53.05
23281;BME280;11809;56.390;-3.266;2023-02-21T15:14:49;100492.19;;;16.84;53.49
23281;BME280;11809;56.390;-3.266;2023-02-21T15:17:23;100505.00;;;16.90;53.85
23281;BME280;11809;56.390;-3.266;2023-02-21T15:20:02;100506.66;;;16.92;54.14
23281;BME280;11809;56.390;-3.266;2023-02-21T15:22:31;100499.09;;;16.99;54.53
23281;BME280;11809;56.390;-3.266;2023-02-21T15:25:19;100503.25;;;17.03;54.57
23281;BME280;11809;56.390;-3.266;2023-02-21T15:35:57;100495.56;;;17.11;55.45
23281;BME280;11809;56.390;-3.266;2023-02-21T15:38:42;100488.91;;;17.18;55.24
23281;BME280;11809;56.390;-3.266;2023-02-21T15:41:28;100490.28;;;17.24;55.09
23281;BME280;11809;56.390;-3.266;2023-02-21T15:44:19;100499.50;;;16.93;52.81
23281;BME280;11809;56.390;-3.266;2023-02-21T15:46:53;100499.16;;;16.72;52.63
23281;BME280;11809;56.390;-3.266;2023-02-21T15:49:31;100491.50;;;16.55;52.13
23281;BME280;11809;56.390;-3.266;2023-02-21T15:52:02;100483.56;;;16.55;51.62
23281;BME280;11809;56.390;-3.266;2023-02-21T15:54:36;100481.00;;;16.54;51.60
23281;BME280;11809;56.390;-3.266;2023-02-21T15:59:38;100475.63;;;16.80;52.63
23281;BME280;11809;56.390;-3.266;2023-02-21T16:04:46;100473.94;;;16.92;53.22
23281;BME280;11809;56.390;-3.266;2023-02-21T16:07:34;100474.34;;;16.98;53.32